Time;durP1;ratioP1;P1;durP2;ratioP2;P2;SDS_P1;SDS_P2;PMS_P1;PMS_P2;Temp;Humidity;BMP_temperature;BMP_pressure;BME280_temperature;BME280_humidity;BME280_pressure;Samples;Min_cycle;Max_cycle;Signal;HPM_P1;HPM_P2
2022/01/09 00:01:27;;;;;;;4.10;3.63;;;3.10;99.90;;;;;;4972914;28;20992;-64
2022/01/09 00:03:56;;;;;;;4.30;3.90;;;3.10;99.90;;;;;;4973850;28;20478;-64
2022/01/09 00:06:25;;;;;;;3.90;3.50;;;3.10;99.90;;;;;;4973300;28;20478;-64
2022/01/09 00:08:53;;;;;;;6.43;4.10;;;3.10;99.90;;;;;;4971501;28;20481;-64
2022/01/09 00:11:26;;;;;;;4.90;3.57;;;3.10;99.90;;;;;;4973960;28;20551;-64
2022/01/09 00:13:56;;;;;;;5.13;3.80;;;3.10;99.90;;;;;;4957242;28;20512;-64
2022/01/09 00:16:24;;;;;;;4.27;3.50;;;3.10;99.90;;;;;;4973732;28;20926;-64
2022/01/09 00:18:53;;;;;;;3.73;3.03;;;3.10;99.90;;;;;;4973712;28;20485;-64
2022/01/09 00:21:21;;;;;;;3.73;2.90;;;3.10;99.90;;;;;;4973746;28;20500;-64
2022/01/09 00:23:49;;;;;;;4.90;4.47;;;3.20;99.90;;;;;;4956630;28;21020;-64
2022/01/09 00:26:17;;;;;;;6.77;4.00;;;3.20;99.90;;;;;;4973873;28;20507;-64
2022/01/09 00:28:45;;;;;;;4.97;3.17;;;3.20;99.90;;;;;;4973322;28;20488;-64
2022/01/09 00:31:14;;;;;;;3.93;3.27;;;3.20;99.90;;;;;;4973719;28;20481;-64
2022/01/09 00:33:42;;;;;;;4.13;3.73;;;3.20;99.90;;;;;;4972782;28;20467;-64
2022/01/09 00:36:11;;;;;;;4.73;3.20;;;3.10;99.90;;;;;;4973897;28;20551;-64
2022/01/09 00:38:39;;;;;;;4.63;3.83;;;3.20;99.90;;;;;;4972805;28;20560;-64
2022/01/09 00:41:07;;;;;;;5.07;3.67;;;3.20;99.90;;;;;;4973070;28;20619;-64
2022/01/09 00:43:35;;;;;;;4.53;3.63;;;3.20;99.90;;;;;;4972977;28;20487;-64
2022/01/09 00:46:03;;;;;;;4.73;3.67;;;3.20;99.90;;;;;;4973164;28;20481;-64
2022/01/09 00:48:34;;;;;;;6.17;3.60;;;3.20;99.90;;;;;;4972776;28;20885;-64
2022/01/09 00:51:02;;;;;;;5.63;3.87;;;3.20;99.90;;;;;;4972994;28;21054;-64
2022/01/09 00:53:30;;;;;;;3.57;3.20;;;3.20;99.90;;;;;;4972850;28;20504;-64
2022/01/09 00:55:58;;;;;;;5.90;4.00;;;3.20;99.90;;;;;;4972513;28;20909;-64
2022/01/09 00:58:28;;;;;;;4.57;3.70;;;3.20;99.90;;;;;;4972819;28;20488;-64
2022/01/09 01:00:58;;;;;;;4.30;3.80;;;3.20;99.90;;;;;;4972273;28;20489;-64
2022/01/09 01:03:26;;;;;;;4.93;3.50;;;3.20;99.90;;;;;;4972720;28;20491;-64
2022/01/09 01:05:56;;;;;;;5.30;3.50;;;3.20;99.90;;;;;;4972808;28;20486;-64
2022/01/09 01:08:24;;;;;;;4.17;3.40;;;3.30;99.90;;;;;;4972256;28;20997;-64
2022/01/09 01:10:59;;;;;;;4.30;3.30;;;3.30;99.90;;;;;;4972357;28;20479;-64
2022/01/09 01:13:28;;;;;;;3.97;3.10;;;3.30;99.90;;;;;;4970995;28;20491;-64
2022/01/09 01:15:57;;;;;;;3.97;3.40;;;3.30;99.90;;;;;;4972630;28;20847;-64
2022/01/09 01:18:37;;;;;;;3.85;3.38;;;3.30;99.90;;;;;;2705567;28;10002304;-64
2022/01/09 01:21:06;;;;;;;4.17;3.03;;;3.30;99.90;;;;;;3942135;28;10002029;-64
2022/01/09 01:23:34;;;;;;;3.73;3.20;;;3.30;99.90;;;;;;4972149;28;20496;-64
2022/01/09 01:26:03;;;;;;;3.33;3.03;;;3.30;99.90;;;;;;4972356;28;20507;-64
2022/01/09 01:28:32;;;;;;;3.10;2.80;;;3.30;99.90;;;;;;4972063;28;20476;-64
2022/01/09 01:31:00;;;;;;;4.30;3.00;;;3.30;99.90;;;;;;4972421;28;20482;-64
2022/01/09 01:33:28;;;;;;;4.07;3.10;;;3.30;99.90;;;;;;4971634;28;20990;-64
2022/01/09 01:35:56;;;;;;;3.40;3.10;;;3.30;99.90;;;;;;4972146;28;20464;-64
2022/01/09 01:38:26;;;;;;;4.67;2.90;;;3.30;99.90;;;;;;4972683;28;20482;-64
2022/01/09 01:40:54;;;;;;;4.93;3.30;;;3.30;99.90;;;;;;4972363;28;20473;-64
2022/01/09 01:43:22;;;;;;;4.43;2.70;;;3.30;99.90;;;;;;4972165;28;20543;-65
2022/01/09 01:45:50;;;;;;;2.50;2.30;;;3.30;99.90;;;;;;4972083;28;20482;-64
2022/01/09 01:48:19;;;;;;;3.93;2.90;;;3.40;99.90;;;;;;4972256;28;20535;-65
2022/01/09 01:50:48;;;;;;;4.03;3.07;;;3.40;99.90;;;;;;4972269;28;20473;-64
2022/01/09 01:53:19;;;;;;;3.70;2.60;;;3.30;99.90;;;;;;4972382;28;20504;-64
2022/01/09 01:55:53;;;;;;;4.17;3.13;;;3.40;99.90;;;;;;4971958;28;20536;-64
2022/01/09 01:58:22;;;;;;;2.80;2.47;;;3.30;99.90;;;;;;4971669;28;20487;-65
2022/01/09 02:00:51;;;;;;;6.77;3.83;;;3.30;99.90;;;;;;4972396;28;20983;-64
2022/01/09 02:03:19;;;;;;;19.63;8.97;;;3.30;99.90;;;;;;4966346;28;20506;-64
2022/01/09 02:05:49;;;;;;;19.17;6.23;;;3.30;99.90;;;;;;4970799;28;20465;-64
2022/01/09 02:08:17;;;;;;;10.27;6.20;;;3.30;99.90;;;;;;4973888;28;20534;-64
2022/01/09 02:10:45;;;;;;;7.43;4.83;;;3.40;99.90;;;;;;4971963;28;20531;-64
2022/01/09 02:13:17;;;;;;;4.67;4.03;;;3.40;99.90;;;;;;4961230;28;20469;-64
2022/01/09 02:15:47;;;;;;;6.37;3.60;;;3.40;99.90;;;;;;4971706;28;21114;-64
2022/01/09 02:18:17;;;;;;;3.47;3.07;;;3.40;99.90;;;;;;4971813;28;20555;-64
2022/01/09 02:20:47;;;;;;;4.17;3.10;;;3.40;99.90;;;;;;4971680;28;20474;-64
2022/01/09 02:23:16;;;;;;;3.30;2.90;;;3.40;99.90;;;;;;4971982;28;20475;-64
2022/01/09 02:25:46;;;;;;;3.40;2.57;;;3.40;99.90;;;;;;4975891;28;21074;-64
2022/01/09 02:28:16;;;;;;;5.20;3.10;;;3.40;99.90;;;;;;4975859;28;20477;-64
2022/01/09 02:30:45;;;;;;;4.87;3.60;;;3.40;99.90;;;;;;4975421;28;20480;-65
2022/01/09 02:33:16;;;;;;;2.73;2.53;;;3.40;99.90;;;;;;4975733;28;20487;-64
2022/01/09 02:35:50;;;;;;;3.10;2.80;;;3.40;99.90;;;;;;4975324;28;20477;-64
2022/01/09 02:38:19;;;;;;;3.60;2.73;;;3.40;99.90;;;;;;4975677;28;20517;-64
2022/01/09 02:40:51;;;;;;;5.30;2.80;;;3.40;99.90;;;;;;4975462;28;20471;-64
2022/01/09 02:43:19;;;;;;;3.83;2.30;;;3.50;99.90;;;;;;4975252;28;20538;-64
2022/01/09 02:45:53;;;;;;;3.83;2.50;;;3.50;99.90;;;;;;4975343;28;20482;-64
2022/01/09 02:48:22;;;;;;;3.00;2.70;;;3.40;99.90;;;;;;4975165;28;21034;-64
2022/01/09 02:51:01;;;;;;;3.97;2.57;;;3.50;99.90;;;;;;4975142;28;20481;-64
2022/01/09 02:53:33;;;;;;;3.47;2.47;;;3.50;99.90;;;;;;4975145;28;20885;-64
2022/01/09 02:56:02;;;;;;;3.53;2.77;;;3.50;99.90;;;;;;4975370;28;20916;-64
2022/01/09 02:58:30;;;;;;;2.80;2.60;;;3.50;99.90;;;;;;4975201;28;20883;-65
2022/01/09 03:00:59;;;;;;;3.93;3.00;;;3.50;99.90;;;;;;4975240;28;20534;-64
2022/01/09 03:03:28;;;;;;;3.10;2.60;;;3.40;99.90;;;;;;4974843;28;20469;-64
2022/01/09 03:05:58;;;;;;;3.40;3.07;;;3.50;99.90;;;;;;4975300;28;20511;-65
2022/01/09 03:08:26;;;;;;;3.10;2.70;;;3.40;99.90;;;;;;4974489;28;20484;-64
2022/01/09 03:10:54;;;;;;;3.80;2.50;;;3.50;99.90;;;;;;4975009;28;20481;-64
2022/01/09 03:13:22;;;;;;;3.13;2.47;;;3.50;99.90;;;;;;4974639;28;21036;-65
2022/01/09 03:15:51;;;;;;;4.27;2.70;;;3.50;99.90;;;;;;4974994;28;20539;-64
2022/01/09 03:18:19;;;;;;;4.43;2.70;;;3.50;99.90;;;;;;4974995;28;20475;-64
2022/01/09 03:20:47;;;;;;;3.70;2.60;;;3.50;99.90;;;;;;4974749;28;20515;-65
2022/01/09 03:23:16;;;;;;;4.80;3.37;;;3.50;99.90;;;;;;4974776;28;20559;-64
2022/01/09 03:25:44;;;;;;;3.40;2.90;;;3.40;99.90;;;;;;4974704;28;20491;-64
2022/01/09 03:28:12;;;;;;;3.67;3.00;;;3.40;99.90;;;;;;4974698;28;20516;-65
2022/01/09 03:30:41;;;;;;;4.20;2.70;;;3.50;99.90;;;;;;4974282;28;20464;-64
2022/01/09 03:33:09;;;;;;;4.43;2.83;;;3.50;99.90;;;;;;4974668;28;20488;-64
2022/01/09 03:35:37;;;;;;;3.57;2.70;;;3.40;99.90;;;;;;4973188;28;20474;-65
2022/01/09 03:38:05;;;;;;;3.63;3.10;;;3.40;99.90;;;;;;4974648;28;21024;-65
2022/01/09 03:40:35;;;;;;;3.97;2.90;;;3.40;99.90;;;;;;4974563;28;20961;-64
2022/01/09 03:43:03;;;;;;;5.10;3.40;;;3.40;99.90;;;;;;4974442;28;20488;-65
2022/01/09 03:45:31;;;;;;;3.77;3.20;;;3.40;99.90;;;;;;4974396;28;20484;-65
2022/01/09 03:47:59;;;;;;;3.30;3.00;;;3.40;99.90;;;;;;4974011;28;20480;-65
2022/01/09 03:50:28;;;;;;;3.40;3.10;;;3.40;99.90;;;;;;4973972;28;21007;-65
2022/01/09 03:52:56;;;;;;;4.10;3.40;;;3.40;99.90;;;;;;4974250;28;20469;-65
2022/01/09 03:55:25;;;;;;;5.83;3.80;;;3.40;99.90;;;;;;4974253;28;20941;-65
2022/01/09 03:57:54;;;;;;;3.37;3.07;;;3.40;99.90;;;;;;4974176;28;20471;-64
2022/01/09 04:00:24;;;;;;;4.27;3.77;;;3.40;99.90;;;;;;4974437;28;20486;-65
2022/01/09 04:02:54;;;;;;;5.43;3.50;;;3.30;99.90;;;;;;4976419;28;20444;-64
2022/01/09 04:05:22;;;;;;;4.13;3.73;;;3.30;99.90;;;;;;4976075;28;20785;-64
2022/01/09 04:07:51;;;;;;;5.40;3.90;;;3.30;99.90;;;;;;4973169;28;20481;-65
2022/01/09 04:10:41;;;;;;;7.37;4.10;;;3.30;99.90;;;;;;4973751;28;20492;-64
2022/01/09 04:13:12;;;;;;;5.43;3.87;;;3.30;99.90;;;;;;4973954;28;20476;-65
2022/01/09 04:15:45;;;;;;;5.77;3.47;;;3.30;99.90;;;;;;4973442;28;20482;-64
2022/01/09 04:18:15;;;;;;;5.20;4.27;;;3.30;99.90;;;;;;4973966;28;20500;-64
2022/01/09 04:20:43;;;;;;;6.53;4.07;;;3.30;99.90;;;;;;4973388;28;20512;-65
2022/01/09 04:23:12;;;;;;;5.87;4.00;;;3.30;99.90;;;;;;4973638;28;20565;-65
2022/01/09 04:25:40;;;;;;;5.40;4.00;;;3.30;99.90;;;;;;4973510;28;20482;-64
2022/01/09 04:28:10;;;;;;;5.13;4.03;;;3.30;99.90;;;;;;4974013;28;20507;-64
2022/01/09 04:30:39;;;;;;;6.82;4.20;;;3.20;99.90;;;;;;4973044;28;20444;-64
2022/01/09 04:33:08;;;;;;;5.17;4.07;;;3.20;99.90;;;;;;4973734;28;20242;-65
2022/01/09 04:35:37;;;;;;;5.63;4.37;;;3.20;99.90;;;;;;4973461;28;20884;-64
2022/01/09 04:38:06;;;;;;;6.23;4.50;;;3.30;99.90;;;;;;4973401;28;20470;-64
2022/01/09 04:40:34;;;;;;;5.53;3.80;;;3.30;99.90;;;;;;4973027;28;20570;-64
2022/01/09 04:43:06;;;;;;;4.53;3.80;;;3.30;99.90;;;;;;4973238;28;20501;-65
2022/01/09 04:45:35;;;;;;;4.63;3.60;;;3.30;99.90;;;;;;4973298;28;20552;-64
2022/01/09 04:48:07;;;;;;;4.90;4.40;;;3.30;99.90;;;;;;4973172;28;20469;-64
2022/01/09 04:50:37;;;;;;;5.40;4.13;;;3.20;99.90;;;;;;4972938;28;20476;-64
2022/01/09 04:53:08;;;;;;;4.90;4.27;;;3.30;99.90;;;;;;4973147;28;20927;-64
2022/01/09 04:55:37;;;;;;;4.70;4.20;;;3.30;99.90;;;;;;4972918;28;20530;-65
2022/01/09 04:58:06;;;;;;;4.90;4.37;;;3.30;99.90;;;;;;4972989;28;20992;-64
2022/01/09 05:00:35;;;;;;;5.40;4.10;;;3.30;99.90;;;;;;4972567;28;20989;-65
2022/01/09 05:03:04;;;;;;;4.80;4.17;;;3.20;99.90;;;;;;4973021;28;20541;-64
2022/01/09 05:05:32;;;;;;;5.33;4.27;;;3.30;99.90;;;;;;4972752;28;20463;-65
2022/01/09 05:08:00;;;;;;;4.87;4.20;;;3.30;99.90;;;;;;4972577;28;20476;-65
2022/01/09 05:10:28;;;;;;;4.23;3.83;;;3.30;99.90;;;;;;4972402;28;20998;-64
2022/01/09 05:12:56;;;;;;;5.77;4.47;;;3.30;99.90;;;;;;4972755;28;21008;-65
2022/01/09 05:15:24;;;;;;;6.10;4.30;;;3.30;99.90;;;;;;4972523;28;20481;-65
2022/01/09 05:17:59;;;;;;;4.78;3.95;;;3.30;99.90;;;;;;4580432;28;10000679;-64
2022/01/09 05:20:28;;;;;;;4.95;4.50;;;3.30;99.90;;;;;;1363975;28;10001998;-64
2022/01/09 05:22:56;;;;;;;4.93;4.33;;;3.30;99.90;;;;;;4965571;28;20232;-64
2022/01/09 05:25:24;;;;;;;5.30;4.37;;;3.20;99.90;;;;;;4969202;28;21011;-64
2022/01/09 05:27:52;;;;;;;4.63;3.97;;;3.20;99.90;;;;;;4968964;28;20481;-65
2022/01/09 05:30:20;;;;;;;4.93;4.43;;;3.20;99.90;;;;;;4968886;28;21027;-65
2022/01/09 05:32:48;;;;;;;5.10;4.60;;;3.30;99.90;;;;;;4970122;28;20555;-65
2022/01/09 05:35:18;;;;;;;5.40;4.13;;;3.30;99.90;;;;;;4972470;28;20499;-64
2022/01/09 05:37:46;;;;;;;4.73;4.13;;;3.30;99.90;;;;;;4972229;28;20833;-65
2022/01/09 05:40:14;;;;;;;5.67;4.50;;;3.30;99.90;;;;;;4972436;28;20515;-64
2022/01/09 05:42:42;;;;;;;4.93;4.27;;;3.30;99.90;;;;;;4971858;28;20494;-65
2022/01/09 05:45:11;;;;;;;4.30;3.90;;;3.30;99.90;;;;;;4972573;28;20824;-64
2022/01/09 05:47:39;;;;;;;4.60;4.20;;;3.30;99.90;;;;;;4972333;28;20480;-65
2022/01/09 05:50:08;;;;;;;5.73;4.43;;;3.30;99.90;;;;;;4972231;28;20473;-64
2022/01/09 05:52:37;;;;;;;4.17;3.77;;;3.30;99.90;;;;;;4972005;28;20488;-65
2022/01/09 05:55:07;;;;;;;4.20;3.80;;;3.30;99.90;;;;;;4972376;28;20512;-65
2022/01/09 05:57:35;;;;;;;4.57;3.93;;;3.30;99.90;;;;;;4971971;28;20502;-65
2022/01/09 06:00:04;;;;;;;4.40;4.00;;;3.20;99.90;;;;;;4971937;28;20866;-64
2022/01/09 06:02:32;;;;;;;4.80;4.27;;;3.30;99.90;;;;;;4971866;28;20464;-64
2022/01/09 06:05:01;;;;;;;4.50;4.10;;;3.20;99.90;;;;;;4972116;28;20473;-64
2022/01/09 06:07:29;;;;;;;5.20;4.30;;;3.20;99.90;;;;;;4971611;28;20494;-65
2022/01/09 06:09:58;;;;;;;4.97;4.47;;;3.30;99.90;;;;;;4971675;28;20477;-64
2022/01/09 06:12:26;;;;;;;4.73;4.17;;;3.30;99.90;;;;;;4971643;28;20473;-65
2022/01/09 06:14:54;;;;;;;4.93;4.40;;;3.20;99.90;;;;;;4971850;28;20476;-65
2022/01/09 06:17:23;;;;;;;4.37;3.97;;;3.20;99.90;;;;;;4971830;28;20481;-65
2022/01/09 06:19:51;;;;;;;5.00;4.50;;;3.20;99.90;;;;;;4971883;28;21029;-65
2022/01/09 06:22:20;;;;;;;5.23;4.37;;;3.20;99.90;;;;;;4971582;28;20540;-65
2022/01/09 06:24:50;;;;;;;4.60;4.20;;;3.20;99.90;;;;;;4971802;28;20476;-64
2022/01/09 06:27:21;;;;;;;4.93;4.43;;;3.10;99.90;;;;;;4971772;28;20839;-65
2022/01/09 06:29:49;;;;;;;5.17;4.60;;;3.20;99.90;;;;;;4971176;28;20514;-65
2022/01/09 06:32:18;;;;;;;4.53;4.13;;;3.20;99.90;;;;;;4971667;28;20478;-64
2022/01/09 06:34:46;;;;;;;5.70;4.43;;;3.20;99.90;;;;;;4971635;28;20515;-64
2022/01/09 06:37:14;;;;;;;5.50;5.00;;;3.20;99.90;;;;;;4971587;28;20491;-64
2022/01/09 06:39:44;;;;;;;6.27;4.87;;;3.20;99.90;;;;;;4971625;28;20543;-65
2022/01/09 06:42:13;;;;;;;5.77;5.10;;;3.20;99.90;;;;;;4971498;28;20832;-65
2022/01/09 06:44:42;;;;;;;5.87;5.27;;;3.20;99.90;;;;;;4971551;28;21003;-64
2022/01/09 06:47:11;;;;;;;5.67;5.03;;;3.20;99.90;;;;;;4971562;28;20515;-64
2022/01/09 06:49:39;;;;;;;5.57;5.00;;;3.20;99.90;;;;;;4971542;28;20474;-64
2022/01/09 06:52:08;;;;;;;5.37;4.83;;;3.20;99.90;;;;;;4971661;28;20477;-64
2022/01/09 06:54:36;;;;;;;5.27;4.77;;;3.20;99.90;;;;;;4971612;28;20476;-65
2022/01/09 06:57:05;;;;;;;5.50;5.00;;;3.20;99.90;;;;;;4971149;28;20463;-65
2022/01/09 06:59:34;;;;;;;5.80;5.30;;;3.20;99.90;;;;;;4971502;28;20483;-65
2022/01/09 07:02:03;;;;;;;5.93;5.33;;;3.20;99.90;;;;;;4971244;28;21042;-65
2022/01/09 07:04:32;;;;;;;6.33;5.70;;;3.20;99.90;;;;;;4971378;28;20474;-65
2022/01/09 07:07:00;;;;;;;5.93;5.40;;;3.20;99.90;;;;;;4971038;28;20474;-65
2022/01/09 07:09:28;;;;;;;6.40;5.60;;;3.20;99.90;;;;;;4971529;28;20475;-65
2022/01/09 07:11:56;;;;;;;6.20;5.60;;;3.20;99.90;;;;;;4974957;28;20479;-65
2022/01/09 07:14:24;;;;;;;6.40;5.70;;;3.20;99.90;;;;;;4974995;28;20528;-65
2022/01/09 07:16:52;;;;;;;6.03;5.43;;;3.20;99.90;;;;;;4974116;28;20490;-64
2022/01/09 07:19:28;;;;;;;5.71;5.16;;;3.20;99.90;;;;;;1495282;28;10022898;-64
2022/01/09 07:21:56;;;;;;;6.07;5.47;;;3.20;99.90;;;;;;4630538;28;10001629;-65
2022/01/09 07:24:24;;;;;;;6.03;5.43;;;3.20;99.90;;;;;;4964807;28;20509;-65
2022/01/09 07:26:52;;;;;;;6.33;5.73;;;3.20;99.90;;;;;;4970836;28;20558;-65
2022/01/09 07:29:20;;;;;;;6.27;5.67;;;3.20;99.90;;;;;;4954737;28;20512;-65
2022/01/09 07:31:51;;;;;;;6.90;6.20;;;3.20;99.90;;;;;;4971706;28;20467;-65
2022/01/09 07:34:19;;;;;;;6.47;5.80;;;3.20;99.90;;;;;;4957386;28;20488;-64
2022/01/09 07:36:49;;;;;;;6.00;5.50;;;3.20;99.90;;;;;;4954870;28;20498;-64
2022/01/09 07:39:17;;;;;;;6.10;5.50;;;3.20;99.90;;;;;;4954995;28;20799;-65
2022/01/09 07:41:49;;;;;;;6.10;5.60;;;3.20;99.90;;;;;;4954779;28;20519;-64
2022/01/09 07:44:20;;;;;;;6.40;5.90;;;3.20;99.90;;;;;;4969395;28;20525;-65
2022/01/09 07:46:48;;;;;;;5.93;5.43;;;3.20;99.90;;;;;;4954719;28;20506;-65
2022/01/09 07:49:16;;;;;;;7.20;6.50;;;3.20;99.90;;;;;;4954764;28;20466;-64
2022/01/09 07:51:45;;;;;;;6.30;5.70;;;3.30;99.90;;;;;;4954821;28;20611;-65
2022/01/09 07:54:21;;;;;;;6.33;5.73;;;3.20;99.90;;;;;;4954568;28;20805;-64
2022/01/09 07:56:49;;;;;;;6.27;5.70;;;3.10;99.90;;;;;;4954730;28;20561;-65
2022/01/09 07:59:17;;;;;;;6.20;5.60;;;3.20;99.90;;;;;;4953649;28;20469;-65
2022/01/09 08:01:49;;;;;;;6.33;5.73;;;3.20;99.90;;;;;;4954550;28;20483;-64
2022/01/09 08:04:17;;;;;;;7.10;6.40;;;3.20;99.90;;;;;;4954772;28;20540;-64
2022/01/09 08:06:46;;;;;;;6.97;6.37;;;3.20;99.90;;;;;;4954431;28;20482;-64
2022/01/09 08:09:14;;;;;;;6.50;5.90;;;3.20;99.90;;;;;;4954068;28;20485;-64
2022/01/09 08:11:43;;;;;;;7.50;6.70;;;3.20;99.90;;;;;;4954199;28;20553;-64
2022/01/09 08:14:11;;;;;;;6.90;6.30;;;3.20;99.90;;;;;;4958075;28;20969;-64
2022/01/09 08:16:40;;;;;;;6.83;6.23;;;3.20;99.90;;;;;;4947034;28;20547;-64
2022/01/09 08:19:08;;;;;;;7.50;6.77;;;3.20;99.90;;;;;;4966359;28;20814;-65
2022/01/09 08:21:36;;;;;;;7.10;6.33;;;3.20;99.90;;;;;;4953638;28;20491;-64
2022/01/09 08:24:05;;;;;;;7.27;6.57;;;3.20;99.90;;;;;;4954263;28;20482;-64
2022/01/09 08:26:33;;;;;;;7.80;7.07;;;3.20;99.90;;;;;;4954112;28;21060;-65
2022/01/09 08:29:03;;;;;;;7.20;6.50;;;3.20;99.90;;;;;;4953900;28;20482;-64
2022/01/09 08:31:31;;;;;;;8.57;6.90;;;3.20;99.90;;;;;;4954022;28;21037;-65
2022/01/09 08:33:59;;;;;;;7.43;6.73;;;3.20;99.90;;;;;;4954186;28;20477;-65
2022/01/09 08:36:33;;;;;;;7.93;7.13;;;3.20;99.90;;;;;;4953983;28;20487;-65
2022/01/09 08:39:01;;;;;;;7.93;7.13;;;3.20;99.90;;;;;;4954065;28;20475;-65
2022/01/09 08:41:29;;;;;;;7.43;6.73;;;3.20;99.90;;;;;;4953895;28;20506;-64
2022/01/09 08:43:57;;;;;;;8.10;7.30;;;3.20;99.90;;;;;;4954079;28;20507;-65
2022/01/09 08:46:27;;;;;;;8.07;7.27;;;3.20;99.90;;;;;;4953463;28;20487;-65
2022/01/09 08:48:55;;;;;;;7.80;6.67;;;3.30;99.90;;;;;;4953660;28;20478;-65
2022/01/09 08:51:24;;;;;;;7.80;7.10;;;3.30;99.90;;;;;;4954006;28;20503;-64
2022/01/09 08:53:52;;;;;;;8.13;7.33;;;3.40;99.90;;;;;;4953818;28;20478;-65
2022/01/09 08:56:21;;;;;;;7.83;7.13;;;3.30;99.90;;;;;;4953703;28;20505;-65
2022/01/09 08:58:49;;;;;;;9.10;7.10;;;3.30;99.90;;;;;;4953366;28;20476;-64
2022/01/09 09:01:38;;;;;;;7.60;6.80;;;3.30;99.90;;;;;;4953395;28;20795;-65
2022/01/09 09:04:07;;;;;;;7.67;6.97;;;3.40;99.90;;;;;;4953738;28;20468;-65
2022/01/09 09:06:35;;;;;;;8.57;7.03;;;3.40;99.90;;;;;;4953294;28;20471;-65
2022/01/09 09:09:04;;;;;;;7.53;6.73;;;3.40;99.90;;;;;;4952935;28;20483;-65
2022/01/09 09:11:32;;;;;;;6.67;6.07;;;3.40;99.90;;;;;;4952961;28;20739;-65
2022/01/09 09:14:02;;;;;;;6.17;5.57;;;3.40;99.90;;;;;;4953462;28;20485;-65
2022/01/09 09:16:31;;;;;;;7.10;6.40;;;3.40;99.90;;;;;;4953005;28;20473;-64
2022/01/09 09:19:14;;;;;;;7.22;6.53;;;3.40;99.90;;;;;;2099783;28;10023763;-65
2022/01/09 09:21:43;;;;;;;6.80;6.10;;;3.40;99.90;;;;;;4285853;28;10001109;-65
2022/01/09 09:24:12;;;;;;;6.87;6.17;;;3.40;99.90;;;;;;4965592;28;20545;-65
2022/01/09 09:26:41;;;;;;;6.77;6.17;;;3.50;99.90;;;;;;4969727;28;20485;-64
2022/01/09 09:29:09;;;;;;;6.63;6.03;;;3.50;99.90;;;;;;4957078;28;20471;-65
2022/01/09 09:31:37;;;;;;;7.73;6.93;;;3.50;99.90;;;;;;4953036;28;20485;-65
2022/01/09 09:34:08;;;;;;;7.93;7.23;;;3.50;99.90;;;;;;4952333;28;21020;-65
2022/01/09 09:36:37;;;;;;;7.83;7.07;;;3.50;99.90;;;;;;4952771;28;20486;-65
2022/01/09 09:39:07;;;;;;;8.13;7.33;;;3.50;99.90;;;;;;4943470;28;20484;-65
2022/01/09 09:41:38;;;;;;;8.87;7.57;;;3.50;99.90;;;;;;4943821;28;20991;-65
2022/01/09 09:44:09;;;;;;;8.37;7.57;;;3.50;99.90;;;;;;4945035;28;20501;-64
2022/01/09 09:46:38;;;;;;;8.97;8.07;;;3.50;99.90;;;;;;4945046;28;21035;-65
2022/01/09 09:49:06;;;;;;;9.53;8.53;;;3.60;99.90;;;;;;4943924;28;20495;-65
2022/01/09 09:51:34;;;;;;;10.73;9.63;;;3.60;99.90;;;;;;4945103;28;20541;-65
2022/01/09 09:54:04;;;;;;;10.47;9.37;;;3.70;99.90;;;;;;4945162;28;20493;-64
2022/01/09 09:56:32;;;;;;;8.60;7.80;;;3.60;99.90;;;;;;4944920;28;20482;-65
2022/01/09 09:59:01;;;;;;;8.80;7.90;;;3.60;99.90;;;;;;4945945;28;20516;-65
2022/01/09 10:01:32;;;;;;;9.20;8.30;;;3.60;99.90;;;;;;4946617;28;20485;-65
2022/01/09 10:04:02;;;;;;;9.80;8.77;;;3.60;99.90;;;;;;4947409;28;20612;-64
2022/01/09 10:06:42;;;;;;;10.57;9.47;;;3.60;99.90;;;;;;4946874;28;20596;-64
2022/01/09 10:09:13;;;;;;;11.33;10.13;;;3.60;99.90;;;;;;4945583;28;20486;-65
2022/01/09 10:11:46;;;;;;;12.63;9.50;;;3.70;99.90;;;;;;4946984;28;20535;-65
2022/01/09 10:14:17;;;;;;;11.87;10.30;;;3.70;99.90;;;;;;4946982;28;20516;-65
2022/01/09 10:17:07;;;;;;;14.23;11.30;;;3.70;99.90;;;;;;4965985;28;20478;-64
2022/01/09 10:19:43;;;;;;;14.20;11.13;;;3.80;99.90;;;;;;4964147;28;20484;-65
2022/01/09 10:22:24;;;;;;;11.43;10.23;;;3.80;99.90;;;;;;4966361;28;20486;-65
2022/01/09 10:24:54;;;;;;;14.30;11.87;;;3.90;99.90;;;;;;4965933;28;20565;-65
2022/01/09 10:27:30;;;;;;;13.47;10.63;;;4.20;99.90;;;;;;4965869;28;20539;-65
2022/01/09 10:29:58;;;;;;;11.60;10.13;;;4.10;99.90;;;;;;4964615;28;20546;-65
2022/01/09 10:32:29;;;;;;;11.77;10.50;;;4.10;99.90;;;;;;4965437;28;20474;-65
2022/01/09 10:35:12;;;;;;;12.33;10.17;;;4.10;99.90;;;;;;4965891;28;20568;-65
2022/01/09 10:37:41;;;;;;;13.60;10.20;;;4.10;99.90;;;;;;4965343;28;20539;-65
2022/01/09 10:40:18;;;;;;;12.27;10.07;;;4.10;99.90;;;;;;4964333;28;20478;-65
2022/01/09 10:43:01;;;;;;;11.93;9.50;;;4.10;99.90;;;;;;4965889;28;20476;-65
2022/01/09 10:45:30;;;;;;;10.67;8.17;;;4.20;99.90;;;;;;4967786;28;20591;-65
2022/01/09 10:48:04;;;;;;;10.90;8.30;;;4.30;99.90;;;;;;4969426;28;20484;-65
2022/01/09 10:50:36;;;;;;;12.20;8.53;;;4.30;99.90;;;;;;4968697;28;20532;-65
2022/01/09 10:53:20;;;;;;;13.20;7.83;;;4.30;99.90;;;;;;4969717;28;20851;-65
2022/01/09 10:56:06;;;;;;;11.67;7.40;;;4.30;99.90;;;;;;4969942;28;20592;-65
2022/01/09 10:58:35;;;;;;;10.83;7.07;;;4.40;99.90;;;;;;4968068;28;20482;-65
2022/01/09 11:01:14;;;;;;;11.77;6.17;;;4.40;99.90;;;;;;4969705;28;20487;-65
2022/01/09 11:03:44;;;;;;;10.63;7.00;;;4.40;99.90;;;;;;4968962;28;20512;-65
2022/01/09 11:06:13;;;;;;;9.30;6.17;;;4.50;99.90;;;;;;4973699;28;20528;-65
2022/01/09 11:08:42;;;;;;;11.23;6.20;;;4.50;99.90;;;;;;4972985;28;20541;-65
2022/01/09 11:11:20;;;;;;;11.03;6.27;;;4.50;99.90;;;;;;4974862;28;20462;-65
2022/01/09 11:13:50;;;;;;;15.40;6.23;;;4.50;99.90;;;;;;4974939;28;20481;-65
2022/01/09 11:16:34;;;;;;;11.77;5.70;;;4.60;99.90;;;;;;4974889;28;20470;-65
2022/01/09 11:19:18;;;;;;;12.43;5.65;;;4.60;99.90;;;;;;2425799;28;10023896;-65
2022/01/09 11:21:47;;;;;;;12.30;5.30;;;4.70;99.90;;;;;;3931710;28;10001437;-65
2022/01/09 11:24:30;;;;;;;12.90;5.37;;;4.70;99.90;;;;;;4975112;28;20535;-65
2022/01/09 11:27:04;;;;;;;15.23;5.47;;;4.80;99.90;;;;;;4974358;28;20480;-65
2022/01/09 11:29:40;;;;;;;11.33;5.10;;;4.80;99.90;;;;;;4974434;28;20481;-65
2022/01/09 11:32:20;;;;;;;9.30;4.77;;;4.90;99.90;;;;;;4974237;28;20579;-65
2022/01/09 11:34:56;;;;;;;11.63;4.33;;;4.90;99.90;;;;;;4969503;28;20491;-65
2022/01/09 11:37:40;;;;;;;10.30;3.73;;;5.00;99.90;;;;;;4969563;28;20494;-65
2022/01/09 11:40:22;;;;;;;13.67;4.07;;;5.00;99.90;;;;;;4967191;28;20484;-65
2022/01/09 11:43:03;;;;;;;10.03;3.90;;;5.00;99.90;;;;;;4968725;28;20548;-65
2022/01/09 11:45:49;;;;;;;9.77;3.10;;;5.10;99.90;;;;;;4968007;28;20523;-65
2022/01/09 11:48:41;;;;;;;11.53;3.10;;;5.10;99.90;;;;;;4968676;28;20468;-65
2022/01/09 11:51:16;;;;;;;13.90;3.47;;;5.20;99.90;;;;;;4967652;28;20577;-65
2022/01/09 11:54:11;;;;;;;10.47;2.67;;;5.30;99.90;;;;;;4967721;28;20886;-65
2022/01/09 11:57:06;;;;;;;12.97;2.80;;;5.30;99.90;;;;;;4967330;28;20508;-65
2022/01/09 11:59:51;;;;;;;10.93;2.40;;;5.30;99.90;;;;;;4968380;28;20535;-65
2022/01/09 12:02:35;;;;;;;13.10;3.00;;;5.40;99.90;;;;;;4967991;28;20553;-65
2022/01/09 12:05:06;;;;;;;12.03;2.80;;;5.40;99.90;;;;;;4967542;28;20581;-65
2022/01/09 12:08:08;;;;;;;10.80;2.47;;;5.50;99.90;;;;;;4967535;28;21016;-65
2022/01/09 12:10:41;;;;;;;8.67;2.13;;;5.40;99.90;;;;;;4967026;28;20497;-65
2022/01/09 12:13:38;;;;;;;11.70;2.60;;;5.40;99.90;;;;;;4968234;28;20541;-65
2022/01/09 12:16:09;;;;;;;11.03;2.73;;;5.50;99.90;;;;;;4968375;28;20241;-65
2022/01/09 12:18:42;;;;;;;10.13;2.40;;;5.60;99.90;;;;;;4972323;28;20601;-65
2022/01/09 12:21:31;;;;;;;13.40;2.10;;;5.50;99.90;;;;;;4971091;28;20505;-65
2022/01/09 12:24:32;;;;;;;11.97;2.57;;;5.40;99.90;;;;;;4969111;28;21096;-65
2022/01/09 12:27:20;;;;;;;17.13;2.33;;;5.40;99.90;;;;;;4971829;28;20535;-65
2022/01/09 12:29:49;;;;;;;14.17;3.00;;;5.50;99.90;;;;;;4969887;28;20488;-65
2022/01/09 12:32:43;;;;;;;12.53;2.27;;;5.50;99.90;;;;;;4973400;28;20986;-65
2022/01/09 12:35:16;;;;;;;11.47;2.90;;;5.60;99.90;;;;;;4972404;28;20480;-65
2022/01/09 12:37:46;;;;;;;16.63;2.90;;;5.50;99.90;;;;;;4969599;28;20477;-65
2022/01/09 12:40:16;;;;;;;11.20;2.53;;;5.40;99.90;;;;;;4971488;28;20465;-65
2022/01/09 12:42:47;;;;;;;13.17;2.80;;;5.50;99.90;;;;;;4970863;28;20242;-65
2022/01/09 12:45:20;;;;;;;12.57;2.63;;;5.50;99.90;;;;;;4970634;28;20241;-65
2022/01/09 12:47:50;;;;;;;13.47;2.03;;;5.70;99.90;;;;;;4970952;28;21084;-65
2022/01/09 12:50:26;;;;;;;10.47;2.37;;;5.60;99.90;;;;;;4969255;28;20572;-65
2022/01/09 12:53:13;;;;;;;15.20;2.50;;;5.60;99.90;;;;;;4962129;28;21397;-65
2022/01/09 12:55:55;;;;;;;10.37;2.13;;;5.70;99.90;;;;;;4964968;28;20293;-65
2022/01/09 12:58:25;;;;;;;10.47;1.97;;;5.60;99.90;;;;;;4965443;28;20273;-65
2022/01/09 13:00:53;;;;;;;13.20;2.50;;;5.70;99.90;;;;;;4965261;28;20485;-64
2022/01/09 13:03:25;;;;;;;14.40;2.20;;;5.70;99.90;;;;;;4965202;28;20474;-65
2022/01/09 13:05:56;;;;;;;10.33;2.30;;;5.70;99.90;;;;;;4964929;28;21195;-65
2022/01/09 13:08:24;;;;;;;13.67;2.03;;;5.70;99.90;;;;;;4965656;28;20474;-65
2022/01/09 13:10:58;;;;;;;11.83;1.70;;;5.70;99.90;;;;;;4953650;28;20497;-65
2022/01/09 13:13:28;;;;;;;10.00;2.30;;;5.80;99.90;;;;;;4965154;28;20489;-64